Terminal Aerodrome Forecast
Issued by NWS

Home | Current Version | Previous Version | Graphics & Text | Print | Product List | Glossary On
Versions: 1 2 3 4 5 6 7 8 9 10 11 12 13 14 15 16 17 18 19
000
FTUS43 KGRB 010100 AAA
TAFATW
TAF AMD
KATW 010113Z 0101/0124 15007KT P6SM SCT015 BKN100
      TEMPO 0102/0104 BKN010
     FM011500 20010G16KT 3SM SHRA VCTS BKN020CB OVC040
     FM011900 24015G22KT P6SM VCSH SCT025 BKN035=

USA.gov is the U.S. government's official web portal to all federal, state and local government web resources and services.